Time;durP1;ratioP1;P1;durP2;ratioP2;P2;SDS_P1;SDS_P2;PMS_P1;PMS_P2;Temp;Humidity;BMP_temperature;BMP_pressure;BME280_temperature;BME280_humidity;BME280_pressure;Samples;Min_cycle;Max_cycle;Signal;HPM_P1;HPM_P2
2021/06/11 00:00:31;;;;;;;8.20;4.20;;;17.70;94.40;;;;;;6184824;23;20036;-71
2021/06/11 00:02:57;;;;;;;5.28;3.85;;;17.60;96.00;;;;;;6184927;23;20110;-72
2021/06/11 00:05:23;;;;;;;5.78;3.90;;;17.60;96.60;;;;;;6185228;23;20001;-71
2021/06/11 00:07:49;;;;;;;7.07;3.83;;;17.60;97.60;;;;;;6184468;23;20001;-72
2021/06/11 00:10:17;;;;;;;5.38;4.07;;;17.70;97.80;;;;;;6184553;23;20095;-72
2021/06/11 00:12:42;;;;;;;4.90;4.20;;;17.70;98.30;;;;;;6185005;23;20005;-72
2021/06/11 00:15:10;;;;;;;14.02;4.78;;;17.60;98.90;;;;;;6184441;23;20005;-71
2021/06/11 00:17:37;;;;;;;5.80;4.30;;;17.60;99.40;;;;;;6184622;23;20084;-72
2021/06/11 00:20:06;;;;;;;6.55;4.70;;;17.50;99.90;;;;;;6184322;23;20341;-72
2021/06/11 00:22:31;;;;;;;5.32;4.00;;;17.40;99.90;;;;;;6184505;23;20005;-71
2021/06/11 00:24:58;;;;;;;5.72;4.75;;;17.30;99.90;;;;;;6184898;23;20522;-72
2021/06/11 00:27:24;;;;;;;6.53;4.20;;;17.30;99.90;;;;;;6184554;23;20369;-72
2021/06/11 00:29:50;;;;;;;5.70;4.65;;;17.30;99.90;;;;;;6184488;23;20428;-71
2021/06/11 00:32:15;;;;;;;6.28;4.57;;;17.30;99.90;;;;;;6184381;23;20008;-73
2021/06/11 00:34:41;;;;;;;5.13;4.53;;;17.20;99.90;;;;;;6184772;23;20436;-73
2021/06/11 00:37:07;;;;;;;6.35;4.70;;;17.10;99.90;;;;;;6184561;23;20445;-73
2021/06/11 00:39:34;;;;;;;6.68;4.68;;;17.10;99.90;;;;;;6184261;23;20417;-73
2021/06/11 00:42:03;;;;;;;5.38;4.55;;;17.10;99.90;;;;;;6184523;23;20013;-73
2021/06/11 00:44:29;;;;;;;6.65;4.72;;;17.10;99.90;;;;;;6184469;23;20032;-73
2021/06/11 00:46:55;;;;;;;5.78;4.32;;;17.10;99.90;;;;;;6184294;23;20017;-72
2021/06/11 00:49:21;;;;;;;6.47;4.70;;;17.20;99.90;;;;;;6184292;23;20059;-72
2021/06/11 00:51:48;;;;;;;7.88;4.30;;;17.10;99.90;;;;;;6184686;23;20009;-72
2021/06/11 00:54:14;;;;;;;7.78;4.65;;;17.00;99.90;;;;;;6184150;23;20406;-73
2021/06/11 00:56:40;;;;;;;5.25;4.40;;;16.90;99.90;;;;;;6184287;23;20008;-72
2021/06/11 00:59:07;;;;;;;6.10;4.65;;;16.90;99.90;;;;;;6184410;23;20004;-72
2021/06/11 01:01:33;;;;;;;7.80;5.03;;;16.80;99.90;;;;;;6184288;23;20016;-73
2021/06/11 01:03:58;;;;;;;6.00;4.97;;;16.80;99.90;;;;;;6184407;23;20072;-71
2021/06/11 01:06:25;;;;;;;7.60;4.95;;;16.60;99.90;;;;;;6184022;23;20002;-72
2021/06/11 01:08:52;;;;;;;9.85;5.28;;;16.50;99.90;;;;;;6184632;23;20005;-72
2021/06/11 01:44:59;;;;;;;10.13;6.53;;;16.10;99.90;;;;;;6163267;23;20069;-70
2021/06/11 01:47:25;;;;;;;7.28;6.35;;;16.10;99.90;;;;;;6184225;23;20009;-70
2021/06/11 01:49:52;;;;;;;10.15;7.18;;;16.00;99.90;;;;;;6183776;23;20009;-70
2021/06/11 01:52:20;;;;;;;6.97;6.28;;;16.00;99.90;;;;;;6184090;23;20023;-72
2021/06/11 01:54:46;;;;;;;9.82;6.78;;;16.00;99.90;;;;;;6183813;23;20083;-72
2021/06/11 01:57:13;;;;;;;9.05;7.13;;;16.00;99.90;;;;;;6184021;23;19997;-72
2021/06/11 01:59:40;;;;;;;7.38;6.68;;;16.00;99.90;;;;;;6183809;23;20013;-72
2021/06/11 02:02:07;;;;;;;7.97;7.20;;;16.00;99.90;;;;;;6184389;23;20148;-72
2021/06/11 02:04:33;;;;;;;13.70;7.38;;;16.00;99.90;;;;;;6183837;23;20128;-72
2021/06/11 02:07:00;;;;;;;9.25;7.65;;;15.90;99.90;;;;;;6184206;23;19997;-72
2021/06/11 02:09:27;;;;;;;8.15;7.13;;;15.90;99.90;;;;;;6184272;23;20009;-72
2021/06/11 02:11:54;;;;;;;10.65;7.57;;;15.90;99.90;;;;;;6184033;23;20072;-71
2021/06/11 02:14:22;;;;;;;8.23;7.43;;;15.90;99.90;;;;;;6183915;23;20429;-71
2021/06/11 02:16:49;;;;;;;7.82;7.03;;;15.90;99.90;;;;;;6183963;23;20001;-71
2021/06/11 02:19:15;;;;;;;8.23;7.40;;;16.00;99.90;;;;;;6183813;23;20009;-71
2021/06/11 02:21:43;;;;;;;7.93;7.07;;;15.90;99.90;;;;;;6183902;23;20012;-72
2021/06/11 02:24:09;;;;;;;8.38;7.57;;;16.00;99.90;;;;;;6184135;23;20013;-72
2021/06/11 02:26:37;;;;;;;7.82;7.03;;;16.00;99.90;;;;;;6183774;23;20036;-71
2021/06/11 02:29:04;;;;;;;8.25;6.80;;;16.00;99.90;;;;;;6183993;23;20002;-71
2021/06/11 02:31:30;;;;;;;9.10;6.90;;;16.10;99.90;;;;;;6185537;23;20001;-70
2021/06/11 02:33:56;;;;;;;8.38;7.50;;;16.10;99.90;;;;;;6185626;23;20008;-70
2021/06/11 02:36:21;;;;;;;7.70;7.00;;;16.20;99.90;;;;;;6185906;23;20028;-71
2021/06/11 02:38:47;;;;;;;8.60;6.68;;;16.20;99.90;;;;;;6185561;23;20070;-71
2021/06/11 02:41:18;;;;;;;7.70;6.90;;;16.20;99.90;;;;;;6185490;23;20099;-71
2021/06/11 02:43:47;;;;;;;8.52;6.90;;;16.30;99.90;;;;;;6185786;23;20005;-71
2021/06/11 02:46:24;;;;;;;9.00;6.72;;;16.40;99.90;;;;;;6185087;23;20028;-70
2021/06/11 02:48:57;;;;;;;7.53;6.60;;;16.50;99.90;;;;;;6185379;23;20001;-70
2021/06/11 02:51:37;;;;;;;7.22;6.53;;;16.60;99.90;;;;;;6185313;23;20005;-71
2021/06/11 02:54:07;;;;;;;6.95;6.30;;;16.70;99.90;;;;;;6185596;23;20433;-72
2021/06/11 02:56:39;;;;;;;9.57;6.35;;;16.90;99.90;;;;;;6185229;23;20017;-72
2021/06/11 02:59:13;;;;;;;6.80;6.18;;;16.90;99.90;;;;;;6185486;23;20001;-72
2021/06/11 03:01:44;;;;;;;6.25;5.65;;;17.00;99.90;;;;;;6185129;23;20013;-72
2021/06/11 03:04:11;;;;;;;7.22;6.53;;;17.00;99.90;;;;;;6185497;23;20080;-72
2021/06/11 03:06:38;;;;;;;6.95;6.25;;;17.00;99.90;;;;;;6185197;23;20036;-72
2021/06/11 03:09:09;;;;;;;6.90;6.20;;;17.00;99.90;;;;;;6158948;23;20097;-72
2021/06/11 03:11:39;;;;;;;6.63;6.03;;;17.00;99.90;;;;;;6185082;23;20464;-72
2021/06/11 03:14:05;;;;;;;;;;;17.00;99.90;;;;;;6186122;23;20079;-72
2021/06/11 03:16:31;;;;;;;6.95;6.25;;;17.10;99.90;;;;;;6185260;23;19903;-72
2021/06/11 03:19:05;;;;;;;6.78;5.90;;;17.20;99.90;;;;;;6185101;23;20363;-71
2021/06/11 03:21:36;;;;;;;19.50;6.38;;;17.50;99.90;;;;;;6185170;23;20020;-71
2021/06/11 03:24:27;;;;;;;8.27;5.93;;;17.80;99.90;;;;;;6185245;23;20008;-70
2021/06/11 03:27:12;;;;;;;6.03;5.43;;;18.10;99.90;;;;;;6185082;23;20009;-70
2021/06/11 03:29:55;;;;;;;6.50;5.82;;;18.50;99.90;;;;;;6185197;23;20001;-70
2021/06/11 03:32:27;;;;;;;5.68;5.10;;;18.70;99.90;;;;;;6185257;23;20485;-70
2021/06/11 03:34:55;;;;;;;5.90;5.30;;;18.90;99.90;;;;;;6185082;23;20005;-71
2021/06/11 03:37:23;;;;;;;6.03;5.43;;;19.30;99.90;;;;;;6185230;23;20032;-71
2021/06/11 03:39:58;;;;;;;9.18;5.95;;;19.50;99.90;;;;;;6184747;23;20009;-71
2021/06/11 03:42:25;;;;;;;5.53;5.03;;;19.70;99.90;;;;;;6185026;23;20080;-71
2021/06/11 03:44:52;;;;;;;5.70;5.18;;;19.90;99.90;;;;;;6184519;23;20017;-70
2021/06/11 03:47:21;;;;;;;5.53;5.03;;;20.00;99.90;;;;;;6185037;23;20053;-75
2021/06/11 03:49:50;;;;;;;5.90;5.28;;;20.20;99.90;;;;;;6184883;23;20008;-75
2021/06/11 03:52:22;;;;;;;5.35;4.90;;;20.50;99.90;;;;;;6184905;23;20005;-73
2021/06/11 03:54:49;;;;;;;7.20;5.55;;;20.80;99.90;;;;;;6185189;23;20063;-73
2021/06/11 03:57:16;;;;;;;8.68;5.60;;;21.10;98.70;;;;;;6184967;23;20006;-72
2021/06/11 03:59:44;;;;;;;9.23;5.85;;;21.30;97.50;;;;;;6184805;23;20012;-73
2021/06/11 04:02:09;;;;;;;10.60;5.07;;;21.40;96.00;;;;;;6184842;23;20425;-73
2021/06/11 04:04:36;;;;;;;6.30;4.85;;;21.50;95.60;;;;;;6184821;23;20001;-73
2021/06/11 04:07:27;;;;;;;6.45;4.57;;;21.70;94.40;;;;;;6184774;23;20008;-73
2021/06/11 04:10:06;;;;;;;8.70;4.80;;;21.70;93.00;;;;;;6185015;23;20007;-73
2021/06/11 04:12:46;;;;;;;5.97;5.10;;;22.00;92.90;;;;;;6184720;23;20048;-73
2021/06/11 04:15:12;;;;;;;5.43;4.75;;;22.10;91.20;;;;;;6185017;23;20001;-73
2021/06/11 04:17:42;;;;;;;5.55;5.03;;;22.30;90.70;;;;;;6184629;23;20056;-73
2021/06/11 04:20:11;;;;;;;;;;;22.60;88.70;;;;;;6185339;23;20329;-73
2021/06/11 04:22:42;;;;;;;5.35;4.88;;;22.80;86.10;;;;;;6184420;23;19954;-72
2021/06/11 04:25:11;;;;;;;8.25;4.38;;;22.90;85.20;;;;;;6184784;23;20311;-73
2021/06/11 04:27:39;;;;;;;7.07;4.47;;;23.00;83.50;;;;;;6184559;23;20080;-74
2021/06/11 04:30:05;;;;;;;12.40;4.78;;;23.00;82.30;;;;;;6184898;23;20059;-72
2021/06/11 04:32:31;;;;;;;5.50;4.43;;;23.10;82.10;;;;;;6184469;23;20008;-74
2021/06/11 04:34:57;;;;;;;10.55;4.30;;;23.20;80.40;;;;;;6184240;23;20009;-74
2021/06/11 04:37:23;;;;;;;10.68;4.45;;;23.30;79.20;;;;;;6184380;23;20438;-77
2021/06/11 04:39:49;;;;;;;8.80;4.28;;;23.20;78.50;;;;;;6184564;23;20013;-74
2021/06/11 04:42:15;;;;;;;4.78;4.20;;;23.40;78.30;;;;;;6184257;23;20321;-69
2021/06/11 04:44:40;;;;;;;7.53;4.45;;;23.60;77.30;;;;;;6183804;23;20064;-69
2021/06/11 04:47:06;;;;;;;6.88;4.90;;;23.60;76.90;;;;;;6184312;23;20012;-72
2021/06/11 04:49:32;;;;;;;5.85;4.47;;;23.70;76.80;;;;;;6184693;23;20373;-73
2021/06/11 04:51:58;;;;;;;12.23;4.60;;;23.70;76.20;;;;;;6184333;23;20480;-72
2021/06/11 04:54:24;;;;;;;5.70;4.75;;;23.90;75.50;;;;;;6184375;23;20005;-85
2021/06/11 04:56:50;;;;;;;8.32;4.70;;;24.00;75.40;;;;;;6184174;23;20024;-82
2021/06/11 04:59:16;;;;;;;6.30;4.05;;;24.30;76.10;;;;;;6184709;23;20001;-80
2021/06/11 05:01:45;;;;;;;5.00;4.30;;;24.60;73.40;;;;;;6184138;23;20013;-78
2021/06/11 05:04:11;;;;;;;11.20;4.70;;;24.90;77.60;;;;;;6184017;23;20005;-81
2021/06/11 05:06:37;;;;;;;6.30;4.18;;;25.00;72.10;;;;;;6157679;23;20012;-82
2021/06/11 05:09:06;;;;;;;7.30;3.90;;;24.80;70.20;;;;;;6183623;23;19997;-80
2021/06/11 05:11:31;;;;;;;15.15;3.92;;;24.70;69.40;;;;;;6183890;23;20376;-81
2021/06/11 05:13:57;;;;;;;8.73;4.13;;;24.70;69.70;;;;;;6184114;23;20087;-82
2021/06/11 05:16:23;;;;;;;4.97;3.47;;;24.70;69.70;;;;;;6183941;23;20333;-81
2021/06/11 05:18:48;;;;;;;25.30;4.93;;;24.60;69.20;;;;;;6183799;23;20444;-80
2021/06/11 05:21:14;;;;;;;4.47;3.72;;;24.70;69.10;;;;;;6184239;23;20013;-81
2021/06/11 05:23:40;;;;;;;7.20;4.00;;;24.80;68.60;;;;;;6183673;23;20033;-79
2021/06/11 05:26:06;;;;;;;7.95;4.05;;;24.80;67.80;;;;;;6184135;23;20036;-77
2021/06/11 05:28:31;;;;;;;7.82;4.32;;;24.80;67.70;;;;;;6183944;23;20005;-77
2021/06/11 05:30:57;;;;;;;4.55;4.15;;;24.80;67.90;;;;;;6183805;23;20008;-74
2021/06/11 05:33:24;;;;;;;6.25;3.75;;;25.00;67.60;;;;;;6157919;23;20051;-87
2021/06/11 05:35:51;;;;;;;12.98;3.78;;;25.10;67.50;;;;;;6184590;23;20048;-88
2021/06/11 05:38:17;;;;;;;4.78;3.95;;;25.50;66.70;;;;;;6184372;23;20076;-86
2021/06/11 05:40:43;;;;;;;6.18;3.65;;;25.60;65.70;;;;;;6184491;23;20016;-85
2021/06/11 05:43:09;;;;;;;13.10;5.43;;;25.60;64.90;;;;;;6185863;23;20009;-85
2021/06/11 05:45:35;;;;;;;7.22;4.00;;;25.60;64.50;;;;;;6185129;23;20028;-85
2021/06/11 05:48:02;;;;;;;4.95;3.55;;;25.80;64.10;;;;;;6185174;23;20005;-85
2021/06/11 05:50:29;;;;;;;5.95;4.35;;;26.00;63.90;;;;;;6158344;23;20005;-83
2021/06/11 05:52:57;;;;;;;5.70;3.83;;;26.00;62.90;;;;;;6183793;23;19997;-84
2021/06/11 05:55:25;;;;;;;23.67;5.57;;;25.90;63.00;;;;;;6157811;23;20005;-83
2021/06/11 05:57:51;;;;;;;5.55;3.50;;;26.10;63.60;;;;;;6184300;23;20317;-84
2021/06/11 06:00:17;;;;;;;7.97;4.10;;;26.20;63.10;;;;;;6184218;23;20020;-83
2021/06/11 06:02:43;;;;;;;5.68;3.92;;;26.30;63.00;;;;;;6183970;23;20433;-84
2021/06/11 06:05:09;;;;;;;8.77;4.25;;;26.60;62.40;;;;;;6184604;23;20004;-83
2021/06/11 06:07:36;;;;;;;8.80;4.40;;;26.70;61.40;;;;;;6185986;23;20020;-83
2021/06/11 06:10:06;;;;;;;44.72;5.75;;;26.60;61.60;;;;;;6185922;23;20016;-82
2021/06/11 06:12:32;;;;;;;13.82;3.90;;;26.80;61.20;;;;;;6186190;23;20005;-84
2021/06/11 06:14:58;;;;;;;14.50;4.10;;;26.90;60.90;;;;;;6186062;23;20001;-80
2021/06/11 06:17:25;;;;;;;8.10;4.32;;;26.90;59.50;;;;;;6186092;23;20005;-84
2021/06/11 06:19:51;;;;;;;9.60;3.70;;;26.70;60.50;;;;;;6185510;23;20434;-83
2021/06/11 06:22:16;;;;;;;9.95;3.90;;;26.80;60.60;;;;;;6185121;23;20001;-82
2021/06/11 06:24:42;;;;;;;7.22;3.80;;;26.90;60.90;;;;;;6185371;23;20008;-84
2021/06/11 06:27:09;;;;;;;7.97;4.03;;;27.00;60.20;;;;;;6185582;23;20017;-78
2021/06/11 06:29:34;;;;;;;5.00;3.92;;;27.10;60.40;;;;;;6185579;23;20390;-78
2021/06/11 06:32:02;;;;;;;7.07;3.85;;;27.10;59.80;;;;;;6185512;23;20001;-78
2021/06/11 06:34:28;;;;;;;9.40;4.00;;;26.90;59.80;;;;;;6185903;23;20001;-75
2021/06/11 06:36:53;;;;;;;8.50;3.90;;;26.80;59.00;;;;;;6185776;23;20008;-74
2021/06/11 06:39:19;;;;;;;7.82;3.63;;;26.70;59.30;;;;;;6185536;23;20005;-71
2021/06/11 06:41:45;;;;;;;10.93;3.83;;;26.70;59.60;;;;;;6185370;23;20001;-78
2021/06/11 06:44:11;;;;;;;19.67;4.10;;;26.80;59.60;;;;;;6185270;23;20532;-79
2021/06/11 06:46:38;;;;;;;7.82;3.83;;;26.80;59.30;;;;;;6185951;23;20009;-75
2021/06/11 06:49:06;;;;;;;5.45;3.15;;;26.80;58.80;;;;;;6185814;23;20001;-76
2021/06/11 06:51:36;;;;;;;7.25;4.03;;;26.70;59.00;;;;;;6185899;23;20029;-76
2021/06/11 06:54:02;;;;;;;8.20;3.35;;;26.80;60.20;;;;;;6185453;23;20008;-76
2021/06/11 06:56:29;;;;;;;3.55;3.10;;;26.90;59.40;;;;;;6185865;23;20005;-76
2021/06/11 06:58:55;;;;;;;8.27;3.00;;;27.10;59.30;;;;;;6185296;23;20001;-76
2021/06/11 07:01:24;;;;;;;13.52;3.40;;;27.30;58.70;;;;;;6185210;23;20032;-76
2021/06/11 07:03:57;;;;;;;10.48;3.22;;;27.20;58.30;;;;;;6185251;23;20025;-75
2021/06/11 07:06:26;;;;;;;6.63;3.30;;;26.90;57.60;;;;;;6185232;23;20005;-71
2021/06/11 07:08:53;;;;;;;8.00;3.33;;;26.60;59.20;;;;;;6185147;23;20008;-72
2021/06/11 07:11:19;;;;;;;4.10;3.38;;;26.50;58.80;;;;;;6185134;23;20005;-70
2021/06/11 07:13:44;;;;;;;5.53;3.28;;;26.50;59.10;;;;;;6184820;23;20007;-69
2021/06/11 07:16:10;;;;;;;6.50;3.00;;;26.50;59.60;;;;;;6184845;23;20004;-69
2021/06/11 07:18:37;;;;;;;3.95;3.08;;;26.50;59.00;;;;;;6185242;23;20001;-71
2021/06/11 07:21:05;;;;;;;57.50;5.07;;;26.40;58.70;;;;;;6184591;23;20020;-70
2021/06/11 07:23:32;;;;;;;7.20;2.92;;;26.40;58.80;;;;;;6185028;23;20047;-70
2021/06/11 07:26:08;;;;;;;6.03;2.42;;;26.50;59.70;;;;;;6184570;23;20008;-69
2021/06/11 07:28:35;;;;;;;6.88;3.10;;;26.60;59.50;;;;;;6184881;23;20009;-69
2021/06/11 07:31:01;;;;;;;4.63;2.72;;;26.60;58.60;;;;;;6184572;23;20421;-69
2021/06/11 07:33:27;;;;;;;6.70;2.65;;;26.70;58.50;;;;;;6184938;23;20033;-69
2021/06/11 07:35:55;;;;;;;21.20;3.67;;;26.70;58.40;;;;;;6184461;23;20048;-75
2021/06/11 07:38:21;;;;;;;7.38;3.08;;;26.80;58.40;;;;;;6158277;23;20425;-70
2021/06/11 07:40:49;;;;;;;19.27;3.88;;;26.50;58.20;;;;;;6184327;23;20013;-71
2021/06/11 07:43:15;;;;;;;8.85;3.08;;;26.30;59.70;;;;;;6185241;23;19997;-70
2021/06/11 07:45:41;;;;;;;6.40;2.85;;;26.40;60.00;;;;;;6184488;23;20017;-77
2021/06/11 07:48:07;;;;;;;7.63;3.10;;;26.50;59.40;;;;;;6184452;23;20036;-79
2021/06/11 07:50:32;;;;;;;8.43;3.00;;;26.50;59.70;;;;;;6184089;23;20001;-71
2021/06/11 07:52:58;;;;;;;288.23;19.05;;;26.60;60.20;;;;;;6183589;23;19997;-72
2021/06/11 07:55:24;;;;;;;6.57;2.80;;;26.70;59.80;;;;;;6183872;23;20005;-75
2021/06/11 07:57:50;;;;;;;20.38;3.70;;;26.80;60.20;;;;;;6184460;23;20001;-70
2021/06/11 08:00:16;;;;;;;32.15;3.92;;;26.90;59.50;;;;;;6184916;23;20044;-72
2021/06/11 08:02:42;;;;;;;6.93;2.70;;;26.90;59.40;;;;;;6184681;23;20460;-72
2021/06/11 08:05:11;;;;;;;4.57;2.78;;;27.00;58.70;;;;;;6185001;23;20009;-72
2021/06/11 08:07:38;;;;;;;5.07;2.70;;;27.00;58.70;;;;;;6184771;23;20060;-71
2021/06/11 08:10:05;;;;;;;12.45;2.97;;;27.10;59.10;;;;;;6185001;23;20009;-72
2021/06/11 08:12:31;;;;;;;6.38;2.92;;;27.10;59.50;;;;;;6185137;23;20076;-72
2021/06/11 08:14:58;;;;;;;9.75;3.65;;;27.10;60.00;;;;;;6184376;23;20361;-71
2021/06/11 08:17:24;;;;;;;4.32;3.10;;;26.90;60.80;;;;;;6184882;23;20025;-71
2021/06/11 08:19:50;;;;;;;5.70;2.67;;;26.70;61.20;;;;;;6184692;23;20029;-71
2021/06/11 08:22:16;;;;;;;19.02;3.55;;;26.50;62.20;;;;;;6184418;23;20004;-71
2021/06/11 08:24:42;;;;;;;7.22;3.40;;;26.50;62.20;;;;;;6184602;23;20029;-71
2021/06/11 08:27:07;;;;;;;13.63;3.30;;;26.50;62.60;;;;;;6183809;23;20101;-71
2021/06/11 08:29:33;;;;;;;5.03;2.80;;;26.50;64.00;;;;;;6184811;23;20009;-71
2021/06/11 08:31:59;;;;;;;6.22;3.45;;;26.60;62.20;;;;;;6184292;23;20008;-71
2021/06/11 08:34:26;;;;;;;10.48;2.97;;;26.70;62.30;;;;;;6184595;23;20001;-71
2021/06/11 08:36:52;;;;;;;5.30;3.13;;;26.80;62.40;;;;;;6184176;23;20001;-71
2021/06/11 08:39:18;;;;;;;5.38;3.13;;;26.80;62.30;;;;;;6184364;23;20087;-71
2021/06/11 08:41:44;;;;;;;11.77;3.00;;;26.80;62.80;;;;;;6184290;23;20013;-71
2021/06/11 08:44:12;;;;;;;5.80;3.03;;;26.90;62.40;;;;;;6184191;23;20011;-71
2021/06/11 08:46:38;;;;;;;5.25;2.95;;;26.90;61.40;;;;;;6184345;23;20013;-71
2021/06/11 08:49:04;;;;;;;12.77;2.80;;;26.90;61.80;;;;;;6184645;23;20005;-71
2021/06/11 08:51:31;;;;;;;13.23;2.92;;;27.00;61.60;;;;;;6184638;23;20020;-72
2021/06/11 08:53:57;;;;;;;10.23;2.97;;;27.00;61.40;;;;;;6184865;23;20028;-71
2021/06/11 08:56:23;;;;;;;9.18;2.53;;;27.00;60.00;;;;;;6184547;23;20079;-71
2021/06/11 08:58:50;;;;;;;39.75;4.10;;;26.80;60.70;;;;;;6184364;23;20011;-71
2021/06/11 09:01:16;;;;;;;12.98;2.60;;;27.00;61.20;;;;;;6184233;23;20065;-71
2021/06/11 09:03:46;;;;;;;42.15;3.97;;;27.10;61.00;;;;;;6184584;23;20084;-71
2021/06/11 09:06:13;;;;;;;9.23;2.53;;;27.10;59.70;;;;;;6184424;23;20160;-71
2021/06/11 09:09:01;;;;;;;17.40;2.95;;;27.20;59.30;;;;;;6184236;23;20001;-71
2021/06/11 09:11:32;;;;;;;20.73;3.30;;;27.20;58.50;;;;;;6184181;23;20013;-71
2021/06/11 09:14:09;;;;;;;4.32;2.13;;;27.20;57.40;;;;;;6184515;23;20024;-71
2021/06/11 09:16:43;;;;;;;13.07;2.60;;;27.20;57.90;;;;;;6184479;23;20008;-71
2021/06/11 09:19:12;;;;;;;6.35;2.35;;;27.20;56.50;;;;;;6184370;23;20072;-71
2021/06/11 09:21:49;;;;;;;9.82;2.22;;;27.20;56.60;;;;;;6183996;23;20371;-71
2021/06/11 09:24:24;;;;;;;8.82;2.58;;;27.20;57.00;;;;;;6184300;23;20005;-71
2021/06/11 09:27:10;;;;;;;6.38;2.55;;;27.30;57.50;;;;;;6184345;23;20005;-72
2021/06/11 09:29:47;;;;;;;9.30;2.45;;;27.20;56.50;;;;;;6184524;23;20064;-71
2021/06/11 09:32:13;;;;;;;17.23;2.83;;;27.30;56.50;;;;;;6184349;23;20037;-71
2021/06/11 09:34:40;;;;;;;17.92;3.58;;;27.30;56.10;;;;;;6183974;23;20005;-71
2021/06/11 09:37:09;;;;;;;10.38;2.53;;;27.30;55.40;;;;;;6184122;23;20005;-71
2021/06/11 09:39:54;;;;;;;;;;;27.40;55.90;;;;;;6185703;23;20329;-71
2021/06/11 09:42:44;;;;;;;10.38;2.60;;;27.40;55.40;;;;;;6186096;23;19900;-71
2021/06/11 09:45:15;;;;;;;10.30;2.30;;;27.40;54.30;;;;;;6185675;23;20096;-71
2021/06/11 09:47:43;;;;;;;80.30;5.18;;;27.30;54.20;;;;;;6185980;23;20004;-71
2021/06/11 09:50:16;;;;;;;16.50;2.50;;;27.30;53.90;;;;;;6186231;23;20005;-71
2021/06/11 09:52:57;;;;;;;32.95;3.10;;;27.20;53.90;;;;;;6186192;23;20001;-71
2021/06/11 09:55:28;;;;;;;7.43;2.63;;;27.20;53.50;;;;;;6186073;23;20001;-71
2021/06/11 09:58:06;;;;;;;14.82;2.67;;;27.20;54.30;;;;;;6185958;23;20063;-72
2021/06/11 10:00:34;;;;;;;10.57;2.65;;;27.10;54.20;;;;;;6185787;23;20009;-72
2021/06/11 10:03:00;;;;;;;12.40;2.15;;;27.10;54.40;;;;;;6185992;23;20001;-71
2021/06/11 10:05:27;;;;;;;6.25;2.47;;;27.10;54.60;;;;;;6186085;23;20032;-72
2021/06/11 10:07:55;;;;;;;15.00;2.17;;;27.10;54.80;;;;;;6185915;23;20384;-72
2021/06/11 10:10:21;;;;;;;23.38;2.72;;;27.10;54.70;;;;;;6185764;23;20001;-71
2021/06/11 10:12:48;;;;;;;32.17;3.25;;;27.10;54.60;;;;;;6185835;23;20056;-72
2021/06/11 10:15:15;;;;;;;35.65;3.10;;;27.10;54.60;;;;;;6185604;23;20453;-73
2021/06/11 10:17:42;;;;;;;11.95;2.35;;;27.10;53.00;;;;;;6185917;23;20054;-73
2021/06/11 10:20:10;;;;;;;10.43;2.33;;;27.10;53.70;;;;;;6185787;23;20306;-73
2021/06/11 10:22:37;;;;;;;12.98;2.30;;;27.10;53.30;;;;;;6186054;23;20071;-73
2021/06/11 10:25:05;;;;;;;4.22;1.88;;;27.10;53.60;;;;;;6185558;23;20012;-73
2021/06/11 10:27:31;;;;;;;31.90;2.85;;;27.10;54.00;;;;;;6185797;23;20001;-72
2021/06/11 10:29:57;;;;;;;25.95;2.88;;;27.10;53.80;;;;;;6185416;23;20051;-73
2021/06/11 10:32:23;;;;;;;10.48;2.15;;;27.10;53.50;;;;;;6185679;23;20004;-72
2021/06/11 10:34:53;;;;;;;37.85;3.25;;;27.10;53.40;;;;;;6185960;23;20094;-73
2021/06/11 10:37:39;;;;;;;35.60;4.40;;;27.00;53.20;;;;;;6185456;23;20001;-73
2021/06/11 10:40:24;;;;;;;14.60;2.13;;;27.10;52.90;;;;;;6185468;23;20016;-73
2021/06/11 10:42:51;;;;;;;18.73;3.00;;;27.10;53.30;;;;;;6185497;23;20084;-73
2021/06/11 10:45:43;;;;;;;7.93;2.03;;;27.10;53.70;;;;;;6185248;23;20094;-72
2021/06/11 10:48:09;;;;;;;16.83;2.28;;;27.20;53.90;;;;;;6185262;23;20005;-73
2021/06/11 10:50:37;;;;;;;100.10;5.95;;;27.20;52.80;;;;;;6184987;23;20088;-73
2021/06/11 10:53:32;;;;;;;30.08;2.90;;;27.10;52.30;;;;;;6185451;23;20012;-73
2021/06/11 10:56:14;;;;;;;27.90;3.10;;;27.20;52.70;;;;;;6185400;23;20079;-73
2021/06/11 10:58:42;;;;;;;17.55;2.30;;;27.10;51.60;;;;;;6185311;23;20507;-73
2021/06/11 11:01:29;;;;;;;6.15;2.33;;;27.10;52.00;;;;;;6185276;23;20373;-73
2021/06/11 11:04:16;;;;;;;21.13;2.80;;;27.00;52.20;;;;;;6185389;23;20005;-72
2021/06/11 11:06:41;;;;;;;5.68;1.92;;;27.00;51.60;;;;;;6185001;23;20001;-73
2021/06/11 11:09:07;;;;;;;15.10;2.33;;;27.00;51.50;;;;;;6184940;23;20096;-73
2021/06/11 11:11:36;;;;;;;37.83;3.47;;;26.90;52.20;;;;;;6185301;23;20032;-72
2021/06/11 11:14:04;;;;;;;99.72;7.03;;;26.80;52.50;;;;;;6185102;23;20004;-73
2021/06/11 11:16:36;;;;;;;38.90;3.85;;;26.70;52.30;;;;;;6185279;23;20001;-72
2021/06/11 11:19:03;;;;;;;15.30;2.13;;;26.70;52.90;;;;;;6185248;23;20445;-73
2021/06/11 11:21:37;;;;;;;11.98;2.70;;;26.80;52.70;;;;;;6184940;23;20013;-73
2021/06/11 11:24:12;;;;;;;74.13;3.78;;;26.80;52.50;;;;;;6185038;23;20012;-72
2021/06/11 11:26:49;;;;;;;31.02;3.17;;;26.80;51.20;;;;;;6185408;23;20009;-72
2021/06/11 11:29:17;;;;;;;47.63;3.45;;;26.80;51.00;;;;;;6185121;23;20063;-72
2021/06/11 11:31:45;;;;;;;8.02;1.95;;;26.70;50.70;;;;;;6185005;23;20451;-71
2021/06/11 11:34:11;;;;;;;34.13;3.05;;;26.70;51.20;;;;;;6184975;23;20005;-70
2021/06/11 11:36:38;;;;;;;8.90;2.05;;;26.50;51.30;;;;;;6185102;23;20325;-70
2021/06/11 11:39:06;;;;;;;29.52;3.05;;;26.50;51.60;;;;;;6184904;23;20001;-70
2021/06/11 11:41:33;;;;;;;16.87;2.40;;;26.50;51.80;;;;;;6185254;23;20009;-71
2021/06/11 11:43:59;;;;;;;13.13;1.83;;;26.50;51.90;;;;;;6184703;23;20001;-71
2021/06/11 11:46:25;;;;;;;14.25;2.00;;;26.50;52.10;;;;;;6184868;23;20341;-71
2021/06/11 11:48:50;;;;;;;29.48;2.58;;;26.50;52.10;;;;;;6185259;23;20051;-72
2021/06/11 11:51:18;;;;;;;16.05;2.35;;;26.50;52.30;;;;;;6158278;23;20009;-72
2021/06/11 11:53:44;;;;;;;28.73;2.97;;;26.60;52.50;;;;;;6184849;23;20004;-72
2021/06/11 11:56:10;;;;;;;37.35;3.60;;;26.60;52.60;;;;;;6184601;23;20433;-72
2021/06/11 11:58:36;;;;;;;12.07;1.90;;;26.60;52.10;;;;;;6184686;23;20360;-71
2021/06/11 12:01:03;;;;;;;16.67;2.17;;;26.60;51.20;;;;;;6158146;23;20013;-71
2021/06/11 12:03:29;;;;;;;14.50;2.30;;;26.50;51.80;;;;;;6184476;23;20341;-72
2021/06/11 12:05:54;;;;;;;12.45;2.90;;;26.50;51.00;;;;;;6184776;23;20001;-72
2021/06/11 12:08:20;;;;;;;59.85;4.13;;;26.40;51.20;;;;;;6184565;23;20046;-71
2021/06/11 12:10:46;;;;;;;18.17;2.13;;;26.30;51.40;;;;;;6184709;23;20084;-71
2021/06/11 12:13:12;;;;;;;36.15;3.25;;;26.30;51.80;;;;;;6184424;23;19998;-71
2021/06/11 12:15:37;;;;;;;40.60;3.45;;;26.20;51.40;;;;;;6184638;23;20004;-71
2021/06/11 12:18:03;;;;;;;11.40;2.10;;;26.10;51.60;;;;;;6184490;23;20024;-71
2021/06/11 12:20:33;;;;;;;19.90;2.60;;;26.10;52.40;;;;;;6184436;23;20009;-71
2021/06/11 12:23:03;;;;;;;5.53;1.73;;;26.20;52.80;;;;;;6184463;23;20509;-71
2021/06/11 12:25:29;;;;;;;17.65;2.33;;;26.20;53.60;;;;;;6184543;23;20044;-71
2021/06/11 12:27:54;;;;;;;13.00;2.05;;;26.20;52.90;;;;;;6184746;23;20012;-71
2021/06/11 12:30:21;;;;;;;13.63;2.00;;;26.20;52.90;;;;;;6184810;23;20429;-72
2021/06/11 12:32:47;;;;;;;5.82;1.83;;;26.20;52.60;;;;;;6184485;23;20005;-73
2021/06/11 12:35:14;;;;;;;4.95;1.48;;;26.20;52.80;;;;;;6184388;23;20080;-72
2021/06/11 12:37:39;;;;;;;14.52;1.77;;;26.20;53.00;;;;;;6184742;23;20381;-72
2021/06/11 12:40:06;;;;;;;43.35;2.85;;;26.10;52.80;;;;;;6184399;23;20013;-72
2021/06/11 12:42:39;;;;;;;66.07;5.05;;;26.00;51.70;;;;;;6184619;23;20001;-72
2021/06/11 12:45:06;;;;;;;24.58;2.85;;;25.90;52.00;;;;;;6184112;23;20028;-72
2021/06/11 12:47:34;;;;;;;32.15;2.55;;;25.80;52.70;;;;;;6184551;23;20001;-72
2021/06/11 12:49:59;;;;;;;51.78;4.18;;;25.80;52.10;;;;;;6184722;23;20366;-72
2021/06/11 12:52:25;;;;;;;41.72;3.75;;;25.80;51.80;;;;;;6184470;23;20052;-72
2021/06/11 12:54:51;;;;;;;17.35;2.22;;;25.80;52.30;;;;;;6184489;23;20001;-72
2021/06/11 12:57:17;;;;;;;41.80;4.15;;;25.80;52.10;;;;;;6184270;23;20460;-72
2021/06/11 12:59:44;;;;;;;25.13;2.28;;;25.70;51.70;;;;;;6184511;23;20055;-72
2021/06/11 13:02:15;;;;;;;21.67;2.78;;;25.70;51.50;;;;;;6183969;23;20460;-72
2021/06/11 13:04:41;;;;;;;14.40;2.25;;;25.70;51.70;;;;;;6184844;23;20001;-72
2021/06/11 13:07:06;;;;;;;67.50;5.63;;;25.70;52.60;;;;;;6184361;23;20295;-72
2021/06/11 13:09:33;;;;;;;19.38;2.50;;;25.80;52.40;;;;;;6184273;23;20143;-72
2021/06/11 13:11:59;;;;;;;28.25;3.22;;;25.80;52.00;;;;;;6184106;23;20008;-72
2021/06/11 13:14:26;;;;;;;20.35;2.90;;;25.80;52.20;;;;;;6183860;23;19997;-72
2021/06/11 13:16:53;;;;;;;113.00;5.75;;;25.80;52.40;;;;;;6183977;23;20437;-72
2021/06/11 13:19:18;;;;;;;28.48;2.38;;;25.70;52.50;;;;;;6183908;23;20492;-73
2021/06/11 13:21:45;;;;;;;11.60;2.08;;;25.70;53.20;;;;;;6184384;23;20013;-72